• Join FlightAware (Why Join?)
  • Login
  • US Flag 
02:54PM EDT


 

Airport Tracker/Info


-or-


 

Live Flight TrackerFlight Track Log ✈ SWA3675 ✈ 25-Jun-2013 ✈ KEYW - KMCO

Flight Track Log - Related Links

Times and Time Zones

All times are in EDT time to prevent confusion due to time zone crossing. See the SWA3675 flight status page for this flight to view local times or setup timezone preferences in your user account.

Time Position Orientation Groundspeed Altitude Reporting Facility
EDT Latitude Longitude Course Direction KTS MPH feet Rate Location/Type
12:52PM 24.7011 -81.7117 346° North 231 266 10,000  Level Miami Center
12:53PM 24.7719 -81.7144 358° North 241 277 11,900 2,220 Climbing Miami Center
12:54PM 24.8678 -81.7181 358° North 289 333 14,500 3,060 Climbing Miami Center
12:55PM 24.9828 -81.7206 359° North 352 405 18,100 3,540 Climbing Miami Center
12:56PM 25.0975 -81.3406 31° Northeast  Level FlightAware Approximate
12:56PM 25.0889 -81.7247 358° North 374 430 21,600  Level Miami Center
12:57PM 25.1833 -81.3379 346° North  Level FlightAware Approximate
12:57PM 25.1975 -81.7289 358° North 379 436 22,000  Level Miami Center
12:58PM 25.2718 -81.3620 346° North  Level FlightAware Approximate
12:58PM 25.3164 -81.7336 358° North 404 465 22,000  Level Miami Center
12:59PM 25.4228 -81.7381 358° North 411 473 22,000  Level Miami Center
01:00PM 25.5394 -81.7428 358° North 416 479 22,000  Level Miami Center
01:01PM 25.6564 -81.7450 359° North 421 484 22,000  Level Miami Center
01:02PM 25.7731 -81.7500 358° North 421 484 22,000  Level Miami Center
01:03PM 25.8897 -81.7547 358° North 421 484 22,000  Level Miami Center
01:04PM 26.0067 -81.7572 359° North 421 484 22,000  Level Miami Center
01:05PM 26.1233 -81.7619 358° North 421 484 22,000  Level Miami Center
01:06PM 26.2403 -81.7644 359° North 421 484 22,000 -360 Level Miami Center
01:07PM 26.3569 -81.7692 358° North 421 484 21,300 -1,380 Descending Miami Center
01:08PM 26.4592 -81.7736 358° North 397 457 19,300 -1,680 Descending Miami Center
01:09PM 26.5697 -81.7781 358° North 370 426 18,000 -660 Descending Miami Center
01:10PM 26.6719 -81.7778 360° North 360 414 18,000  Level Miami Center
01:11PM 26.7767 -81.7728 North 365 420 18,000  Level Miami Center
01:12PM 26.8811 -81.7703 North 365 420 18,000  Level Miami Center
01:13PM 26.9856 -81.7678 North 365 420 18,000  Level Miami Center
01:14PM 27.0878 -81.7672 360° North 365 420 18,000  Level Miami Center
01:15PM 27.1944 -81.7625 North 365 420 18,000 -60 Level Miami Center
01:16PM 27.2989 -81.7622 360° North 365 420 17,900 -480 Descending Miami Center
01:17PM 27.4011 -81.7572 North 365 420 17,100 -1,320 Descending Miami Center
01:18PM 27.5033 -81.7569 360° North 365 420 15,300 -1,980 Descending Miami Center
01:19PM 27.5994 -81.7539 North 365 420 13,200 -1,200 Descending Miami Center
01:20PM 27.7061 -81.7514 North 365 420 13,000 -120 Descending Miami Center
01:21PM 27.8064 -81.7511 360° North 354 407 13,000  Level Miami Center
01:23PM 28.0333 -81.7500 360° North 375 432 13,000 -180 Level Orlando TRACON
01:24PM 28.1333 -81.7333 North 350 403 12,500 -900 Descending Orlando TRACON
01:25PM 28.1833 -81.6500 56° Northeast 304 350 11,300 -1,320 Descending Orlando TRACON
01:26PM 28.2167 -81.5833 60° Northeast 295 339 10,000 -1,140 Descending Orlando TRACON
01:27PM 28.2833 -81.5000 48° Northeast 290 334 9,000 -540 Descending Orlando TRACON
01:28PM 28.3167 -81.4500 53° Northeast 290 334 9,000 -240 Level Orlando TRACON
01:29PM 28.4000 -81.4167 19° North 256 295 8,600 -780 Descending Orlando TRACON
01:30PM 28.4667 -81.4167 360° North 239 275 7,500 -1,620 Descending Orlando TRACON
01:31PM 28.5333 -81.4167 360° North 234 269 5,600 -2,100 Descending Orlando TRACON
01:32PM 28.5833 -81.4000 16° North 219 252 3,300 -1,500 Descending Orlando TRACON
01:33PM 28.5833 -81.3333 90° East 184 212 2,500 -480 Descending Orlando TRACON
01:34PM 28.5667 -81.2833 111° Southeast 157 181 2,400 -480 Descending Orlando TRACON
01:35PM 28.5167 -81.3000 196° South 141 162 1,600 -780 Descending Orlando TRACON
01:36PM 28.4833 -81.3000 180° South 145 167 900 -660 Descending Orlando TRACON